Aviation Digital Data Service (ADDS)

Output produced by METARs form (1548 UTC 09 February 2016)
found at http://www.aviationweather.gov/adds/metars/
 
KROW 091451Z 00000KT 10SM CLR M01/M08 A3042 RMK AO2 SLP302 T10111078 53003
KROW 091351Z 26005KT 10SM CLR M04/M09 A3041 RMK AO2 SLP303 T10391094
KROW 091251Z AUTO 32005KT 10SM CLR M03/M09 A3041 RMK AO2 SLP299 T10331094
KROW 091151Z AUTO 31004KT 10SM CLR M03/M09 A3041 RMK AO2 SLP291 T10331094 10000 21039 53003
KROW 091051Z AUTO 30003KT 10SM CLR M04/M09 A3038 RMK AO2 SLP282 T10391094
KROW 090951Z AUTO 02005KT 10SM CLR M03/M09 A3039 RMK AO2 SLP285 T10281094
KROW 090851Z AUTO 03005KT 10SM CLR M02/M09 A3040 RMK AO2 SLP287 T10221094 56009
KROW 090751Z AUTO 00000KT 10SM CLR 00/M09 A3040 RMK AO2 SLP284 T00001094
KROW 090651Z AUTO 27005KT 10SM CLR M01/M09 A3041 RMK AO2 SLP290 T10061094 401111044
KROW 090551Z AUTO 25006KT 10SM CLR M01/M09 A3043 RMK AO2 SLP299 T10111094 10106 21011 51014
KROW 090451Z AUTO 27005KT 10SM CLR 01/M09 A3041 RMK AO2 SLP296 T00061094
KROW 090351Z AUTO 00000KT 10SM CLR 02/M10 A3040 RMK AO2 SLP291 T00221100
KROW 090251Z 22004KT 10SM CLR 03/M10 A3038 RMK AO2 SLP289 T00331100 53009
KROW 090151Z 19007KT 10SM CLR 03/M10 A3036 RMK AO2 SLP286 T00281100
KROW 090051Z 19007KT 10SM CLR 05/M09 A3035 RMK AO2 SLP279 T00501089
KROW 082351Z 20006KT 10SM CLR 11/M09 A3035 RMK AO2 SLP268 T01061089 10111 20072 58008
KROW 082251Z AUTO VRB03KT 10SM CLR 11/M09 A3037 RMK AO2 SLP273 T01061089
KROW 082151Z AUTO 13009KT 10SM CLR 11/M09 A3037 RMK AO2 SLP273 T01061089
KROW 082051Z VRB06KT 10SM CLR 10/M09 A3038 RMK AO2 SLP275 T01001094 56034
KROW 081951Z 16011G15KT 10SM CLR 10/M09 A3040 RMK AO2 SLP280 T01001094
KROW 081851Z 23005KT 10SM CLR 08/M10 A3045 RMK AO2 SLP299 T00831100
KROW 081751Z 19011KT 10SM CLR 07/M11 A3049 RMK AO2 SLP315 T00721111 10072 21044 58010
KROW 081651Z 16007KT 10SM CLR 05/M12 A3054 RMK AO2 SLP331 T00501122
KROW 081551Z VRB03KT 10SM CLR 03/M10 A3054 RMK AO2 SLP335 T00331100
KROW 091211Z 0912/1012 16006KT P6SM SKC 
     FM100200 VRB03KT P6SM SKC